sensor_id;sensor_type;location;lat;lon;timestamp;temperature;humidity
61412;DHT22;47278;49.732;7.690;2023-08-01T00:00:35;17.30;99.90
61412;DHT22;47278;49.732;7.690;2023-08-01T00:03:00;17.30;99.90
61412;DHT22;47278;49.732;7.690;2023-08-01T00:05:26;17.30;99.90
61412;DHT22;47278;49.732;7.690;2023-08-01T00:07:52;17.30;99.90
61412;DHT22;47278;49.732;7.690;2023-08-01T00:10:17;17.30;99.90
61412;DHT22;47278;49.732;7.690;2023-08-01T00:12:43;17.30;99.90
61412;DHT22;47278;49.732;7.690;2023-08-01T00:15:09;17.30;99.90
61412;DHT22;47278;49.732;7.690;2023-08-01T00:17:34;17.30;99.90
61412;DHT22;47278;49.732;7.690;2023-08-01T00:20:01;17.30;99.90
61412;DHT22;47278;49.732;7.690;2023-08-01T00:22:26;17.30;99.90
61412;DHT22;47278;49.732;7.690;2023-08-01T00:24:52;17.30;99.90
61412;DHT22;47278;49.732;7.690;2023-08-01T00:27:17;17.30;99.90
61412;DHT22;47278;49.732;7.690;2023-08-01T00:29:43;17.30;99.90
61412;DHT22;47278;49.732;7.690;2023-08-01T00:32:08;17.30;99.90
61412;DHT22;47278;49.732;7.690;2023-08-01T00:34:34;17.30;99.90
61412;DHT22;47278;49.732;7.690;2023-08-01T00:36:59;17.40;99.90
61412;DHT22;47278;49.732;7.690;2023-08-01T00:39:25;17.40;99.90
61412;DHT22;47278;49.732;7.690;2023-08-01T00:41:50;17.40;99.90
61412;DHT22;47278;49.732;7.690;2023-08-01T00:44:16;17.40;99.90
61412;DHT22;47278;49.732;7.690;2023-08-01T00:46:41;17.40;99.90
61412;DHT22;47278;49.732;7.690;2023-08-01T00:49:07;17.40;99.90
61412;DHT22;47278;49.732;7.690;2023-08-01T00:51:33;17.30;99.90
61412;DHT22;47278;49.732;7.690;2023-08-01T00:53:59;17.30;99.90
61412;DHT22;47278;49.732;7.690;2023-08-01T00:56:25;17.20;99.90
61412;DHT22;47278;49.732;7.690;2023-08-01T00:58:50;17.20;99.90
61412;DHT22;47278;49.732;7.690;2023-08-01T01:01:16;19.40;99.90
61412;DHT22;47278;49.732;7.690;2023-08-01T01:03:41;17.20;99.90
61412;DHT22;47278;49.732;7.690;2023-08-01T01:08:36;17.20;99.90
61412;DHT22;47278;49.732;7.690;2023-08-01T01:11:01;15.70;99.90
61412;DHT22;47278;49.732;7.690;2023-08-01T01:13:27;17.20;99.90
61412;DHT22;47278;49.732;7.690;2023-08-01T01:15:52;17.20;99.90
61412;DHT22;47278;49.732;7.690;2023-08-01T01:18:18;17.20;99.90
61412;DHT22;47278;49.732;7.690;2023-08-01T01:20:43;17.10;99.90
61412;DHT22;47278;49.732;7.690;2023-08-01T01:23:09;17.10;99.90
61412;DHT22;47278;49.732;7.690;2023-08-01T01:25:34;17.10;99.90
61412;DHT22;47278;49.732;7.690;2023-08-01T01:28:02;17.10;99.90
61412;DHT22;47278;49.732;7.690;2023-08-01T01:30:29;17.10;99.90
61412;DHT22;47278;49.732;7.690;2023-08-01T01:32:54;17.10;99.90
61412;DHT22;47278;49.732;7.690;2023-08-01T01:35:20;17.10;99.90
61412;DHT22;47278;49.732;7.690;2023-08-01T01:37:46;17.10;99.90
61412;DHT22;47278;49.732;7.690;2023-08-01T01:40:11;17.20;99.90
61412;DHT22;47278;49.732;7.690;2023-08-01T01:42:37;17.20;99.90
61412;DHT22;47278;49.732;7.690;2023-08-01T01:45:02;17.20;99.90
61412;DHT22;47278;49.732;7.690;2023-08-01T01:47:28;17.20;99.90
61412;DHT22;47278;49.732;7.690;2023-08-01T01:49:54;17.80;99.90
61412;DHT22;47278;49.732;7.690;2023-08-01T01:52:21;17.20;99.90
61412;DHT22;47278;49.732;7.690;2023-08-01T01:54:47;17.20;99.90
61412;DHT22;47278;49.732;7.690;2023-08-01T01:57:12;17.40;99.90
61412;DHT22;47278;49.732;7.690;2023-08-01T01:59:38;17.20;99.90
61412;DHT22;47278;49.732;7.690;2023-08-01T02:02:03;17.30;99.90
61412;DHT22;47278;49.732;7.690;2023-08-01T02:04:29;17.30;99.90
61412;DHT22;47278;49.732;7.690;2023-08-01T02:06:55;17.30;99.90
61412;DHT22;47278;49.732;7.690;2023-08-01T02:09:20;17.30;99.90
61412;DHT22;47278;49.732;7.690;2023-08-01T02:11:46;17.30;99.90
61412;DHT22;47278;49.732;7.690;2023-08-01T02:14:11;17.30;99.90
61412;DHT22;47278;49.732;7.690;2023-08-01T02:16:37;17.30;99.90
61412;DHT22;47278;49.732;7.690;2023-08-01T02:19:02;17.30;99.90
61412;DHT22;47278;49.732;7.690;2023-08-01T02:21:28;17.30;99.90
61412;DHT22;47278;49.732;7.690;2023-08-01T02:23:53;17.30;99.90
61412;DHT22;47278;49.732;7.690;2023-08-01T02:26:19;17.30;99.90
61412;DHT22;47278;49.732;7.690;2023-08-01T02:28:44;17.30;99.90
61412;DHT22;47278;49.732;7.690;2023-08-01T02:31:10;17.40;99.90
61412;DHT22;47278;49.732;7.690;2023-08-01T02:33:36;17.30;99.90
61412;DHT22;47278;49.732;7.690;2023-08-01T02:36:01;17.40;99.90
61412;DHT22;47278;49.732;7.690;2023-08-01T02:38:27;17.40;99.90
61412;DHT22;47278;49.732;7.690;2023-08-01T02:40:53;17.40;99.90
61412;DHT22;47278;49.732;7.690;2023-08-01T02:43:18;17.40;99.90
61412;DHT22;47278;49.732;7.690;2023-08-01T02:45:44;17.40;99.90
61412;DHT22;47278;49.732;7.690;2023-08-01T02:48:09;17.40;99.90
61412;DHT22;47278;49.732;7.690;2023-08-01T02:50:35;17.40;99.90
61412;DHT22;47278;49.732;7.690;2023-08-01T02:53:00;17.40;99.90
61412;DHT22;47278;49.732;7.690;2023-08-01T02:55:26;17.40;99.90
61412;DHT22;47278;49.732;7.690;2023-08-01T02:57:51;17.40;99.90
61412;DHT22;47278;49.732;7.690;2023-08-01T03:00:17;17.40;99.90
61412;DHT22;47278;49.732;7.690;2023-08-01T03:02:42;17.40;99.90
61412;DHT22;47278;49.732;7.690;2023-08-01T03:05:08;17.40;99.90
61412;DHT22;47278;49.732;7.690;2023-08-01T03:07:34;17.50;99.90
61412;DHT22;47278;49.732;7.690;2023-08-01T03:09:59;17.50;99.90
61412;DHT22;47278;49.732;7.690;2023-08-01T03:12:25;17.50;99.90
61412;DHT22;47278;49.732;7.690;2023-08-01T03:14:50;17.40;99.90
61412;DHT22;47278;49.732;7.690;2023-08-01T03:17:16;17.40;99.90
61412;DHT22;47278;49.732;7.690;2023-08-01T03:19:42;17.40;99.90
61412;DHT22;47278;49.732;7.690;2023-08-01T03:22:08;17.30;99.90
61412;DHT22;47278;49.732;7.690;2023-08-01T03:24:33;17.40;99.90
61412;DHT22;47278;49.732;7.690;2023-08-01T03:26:59;17.40;99.90
61412;DHT22;47278;49.732;7.690;2023-08-01T03:29:24;17.40;99.90
61412;DHT22;47278;49.732;7.690;2023-08-01T03:31:50;17.40;99.90
61412;DHT22;47278;49.732;7.690;2023-08-01T03:34:15;17.40;99.90
61412;DHT22;47278;49.732;7.690;2023-08-01T03:36:41;18.30;99.90
61412;DHT22;47278;49.732;7.690;2023-08-01T03:39:06;17.30;99.90
61412;DHT22;47278;49.732;7.690;2023-08-01T03:41:32;17.30;99.90
61412;DHT22;47278;49.732;7.690;2023-08-01T03:43:57;17.30;99.90
61412;DHT22;47278;49.732;7.690;2023-08-01T03:46:23;19.70;99.90
61412;DHT22;47278;49.732;7.690;2023-08-01T03:48:49;17.30;99.90
61412;DHT22;47278;49.732;7.690;2023-08-01T03:51:14;17.30;99.90
61412;DHT22;47278;49.732;7.690;2023-08-01T03:53:41;17.30;99.90
61412;DHT22;47278;49.732;7.690;2023-08-01T03:56:07;17.30;99.90
61412;DHT22;47278;49.732;7.690;2023-08-01T03:58:32;17.30;99.90
61412;DHT22;47278;49.732;7.690;2023-08-01T04:00:58;17.40;99.90
61412;DHT22;47278;49.732;7.690;2023-08-01T04:03:23;17.40;99.90
61412;DHT22;47278;49.732;7.690;2023-08-01T04:05:49;17.40;99.90
61412;DHT22;47278;49.732;7.690;2023-08-01T04:08:14;17.30;99.90
61412;DHT22;47278;49.732;7.690;2023-08-01T04:10:40;17.30;99.90
61412;DHT22;47278;49.732;7.690;2023-08-01T04:13:06;17.30;99.90
61412;DHT22;47278;49.732;7.690;2023-08-01T04:15:31;17.30;99.90
61412;DHT22;47278;49.732;7.690;2023-08-01T04:17:57;17.40;99.90
61412;DHT22;47278;49.732;7.690;2023-08-01T04:20:22;17.30;99.90
61412;DHT22;47278;49.732;7.690;2023-08-01T04:22:48;15.10;99.90
61412;DHT22;47278;49.732;7.690;2023-08-01T04:25:13;17.30;99.90
61412;DHT22;47278;49.732;7.690;2023-08-01T04:27:39;17.20;99.90
61412;DHT22;47278;49.732;7.690;2023-08-01T04:30:05;17.20;99.90
61412;DHT22;47278;49.732;7.690;2023-08-01T04:32:30;17.20;99.90
61412;DHT22;47278;49.732;7.690;2023-08-01T04:34:56;17.20;99.90
61412;DHT22;47278;49.732;7.690;2023-08-01T04:37:21;17.20;99.90
61412;DHT22;47278;49.732;7.690;2023-08-01T04:39:48;17.20;99.90
61412;DHT22;47278;49.732;7.690;2023-08-01T04:42:14;17.20;99.90
61412;DHT22;47278;49.732;7.690;2023-08-01T04:44:39;17.10;99.90
61412;DHT22;47278;49.732;7.690;2023-08-01T04:47:05;17.10;99.90
61412;DHT22;47278;49.732;7.690;2023-08-01T04:49:30;17.10;99.90
61412;DHT22;47278;49.732;7.690;2023-08-01T04:51:56;17.10;99.90
61412;DHT22;47278;49.732;7.690;2023-08-01T04:54:21;17.10;99.90
61412;DHT22;47278;49.732;7.690;2023-08-01T04:56:47;17.10;99.90
61412;DHT22;47278;49.732;7.690;2023-08-01T04:59:12;17.20;99.90
61412;DHT22;47278;49.732;7.690;2023-08-01T05:01:38;17.30;99.90
61412;DHT22;47278;49.732;7.690;2023-08-01T05:04:03;17.10;99.90
61412;DHT22;47278;49.732;7.690;2023-08-01T05:06:29;17.10;99.90
61412;DHT22;47278;49.732;7.690;2023-08-01T05:08:54;17.10;99.90
61412;DHT22;47278;49.732;7.690;2023-08-01T05:11:20;17.10;99.90
61412;DHT22;47278;49.732;7.690;2023-08-01T05:13:46;17.10;99.90
61412;DHT22;47278;49.732;7.690;2023-08-01T05:16:12;17.00;99.90
61412;DHT22;47278;49.732;7.690;2023-08-01T05:18:37;17.10;99.90
61412;DHT22;47278;49.732;7.690;2023-08-01T05:21:03;17.00;99.90
61412;DHT22;47278;49.732;7.690;2023-08-01T05:23:28;17.00;99.90
61412;DHT22;47278;49.732;7.690;2023-08-01T05:25:54;17.00;99.90
61412;DHT22;47278;49.732;7.690;2023-08-01T05:28:19;17.00;99.90
61412;DHT22;47278;49.732;7.690;2023-08-01T05:30:45;17.00;99.90
61412;DHT22;47278;49.732;7.690;2023-08-01T05:33:10;17.10;99.90
61412;DHT22;47278;49.732;7.690;2023-08-01T05:35:36;17.10;99.90
61412;DHT22;47278;49.732;7.690;2023-08-01T05:38:01;17.10;99.90
61412;DHT22;47278;49.732;7.690;2023-08-01T05:40:27;17.10;99.90
61412;DHT22;47278;49.732;7.690;2023-08-01T05:42:52;17.10;99.90
61412;DHT22;47278;49.732;7.690;2023-08-01T05:45:18;17.10;99.90
61412;DHT22;47278;49.732;7.690;2023-08-01T05:47:43;17.10;99.90
61412;DHT22;47278;49.732;7.690;2023-08-01T05:50:09;17.10;99.90
61412;DHT22;47278;49.732;7.690;2023-08-01T05:52:34;17.10;99.90
61412;DHT22;47278;49.732;7.690;2023-08-01T05:55:00;17.10;99.90
61412;DHT22;47278;49.732;7.690;2023-08-01T05:57:26;17.10;99.90
61412;DHT22;47278;49.732;7.690;2023-08-01T05:59:51;17.10;99.90
61412;DHT22;47278;49.732;7.690;2023-08-01T06:02:17;17.10;99.90
61412;DHT22;47278;49.732;7.690;2023-08-01T06:04:42;17.10;99.90
61412;DHT22;47278;49.732;7.690;2023-08-01T06:07:08;17.10;99.90
61412;DHT22;47278;49.732;7.690;2023-08-01T06:09:34;17.10;99.90
61412;DHT22;47278;49.732;7.690;2023-08-01T06:11:59;17.00;99.90
61412;DHT22;47278;49.732;7.690;2023-08-01T06:14:25;17.10;99.90
61412;DHT22;47278;49.732;7.690;2023-08-01T06:16:50;17.00;99.90
61412;DHT22;47278;49.732;7.690;2023-08-01T06:19:16;17.00;99.90
61412;DHT22;47278;49.732;7.690;2023-08-01T06:21:41;17.00;99.90
61412;DHT22;47278;49.732;7.690;2023-08-01T06:24:07;17.10;99.90
61412;DHT22;47278;49.732;7.690;2023-08-01T06:26:33;17.10;99.90
61412;DHT22;47278;49.732;7.690;2023-08-01T06:28:59;17.10;99.90
61412;DHT22;47278;49.732;7.690;2023-08-01T06:31:24;17.10;99.90
61412;DHT22;47278;49.732;7.690;2023-08-01T06:33:50;17.10;99.90
61412;DHT22;47278;49.732;7.690;2023-08-01T06:36:15;17.10;99.90
61412;DHT22;47278;49.732;7.690;2023-08-01T06:38:42;17.10;99.90
61412;DHT22;47278;49.732;7.690;2023-08-01T06:41:08;17.10;99.90
61412;DHT22;47278;49.732;7.690;2023-08-01T06:43:34;17.00;99.90
61412;DHT22;47278;49.732;7.690;2023-08-01T06:45:59;17.00;99.90
61412;DHT22;47278;49.732;7.690;2023-08-01T06:48:25;17.00;99.90
61412;DHT22;47278;49.732;7.690;2023-08-01T06:50:50;17.10;99.90
61412;DHT22;47278;49.732;7.690;2023-08-01T06:53:16;17.10;99.90
61412;DHT22;47278;49.732;7.690;2023-08-01T06:55:42;17.10;99.90
61412;DHT22;47278;49.732;7.690;2023-08-01T06:58:07;17.10;99.90
61412;DHT22;47278;49.732;7.690;2023-08-01T07:00:33;17.20;99.90
61412;DHT22;47278;49.732;7.690;2023-08-01T07:02:58;17.20;99.90
61412;DHT22;47278;49.732;7.690;2023-08-01T07:05:24;17.20;99.90
61412;DHT22;47278;49.732;7.690;2023-08-01T07:07:49;17.40;99.90
61412;DHT22;47278;49.732;7.690;2023-08-01T07:10:15;17.50;99.90
61412;DHT22;47278;49.732;7.690;2023-08-01T07:12:40;17.60;99.90
61412;DHT22;47278;49.732;7.690;2023-08-01T07:15:06;17.60;99.90
61412;DHT22;47278;49.732;7.690;2023-08-01T07:17:33;17.70;99.90
61412;DHT22;47278;49.732;7.690;2023-08-01T07:19:58;17.70;99.90
61412;DHT22;47278;49.732;7.690;2023-08-01T07:22:24;17.80;99.90
61412;DHT22;47278;49.732;7.690;2023-08-01T07:24:55;17.80;99.90
61412;DHT22;47278;49.732;7.690;2023-08-01T07:27:21;17.80;99.90
61412;DHT22;47278;49.732;7.690;2023-08-01T07:29:46;17.70;99.90
61412;DHT22;47278;49.732;7.690;2023-08-01T07:32:12;17.90;99.90
61412;DHT22;47278;49.732;7.690;2023-08-01T07:34:38;18.10;99.90
61412;DHT22;47278;49.732;7.690;2023-08-01T07:37:03;18.20;99.90
61412;DHT22;47278;49.732;7.690;2023-08-01T07:39:29;18.20;99.90
61412;DHT22;47278;49.732;7.690;2023-08-01T07:41:57;18.20;99.90
61412;DHT22;47278;49.732;7.690;2023-08-01T07:44:23;18.10;99.90
61412;DHT22;47278;49.732;7.690;2023-08-01T07:46:48;18.20;99.90
61412;DHT22;47278;49.732;7.690;2023-08-01T07:49:14;18.10;99.90
61412;DHT22;47278;49.732;7.690;2023-08-01T07:51:39;18.10;99.90
61412;DHT22;47278;49.732;7.690;2023-08-01T07:54:05;18.20;99.90
61412;DHT22;47278;49.732;7.690;2023-08-01T07:56:30;18.20;99.90
61412;DHT22;47278;49.732;7.690;2023-08-01T07:58:56;18.20;99.90
61412;DHT22;47278;49.732;7.690;2023-08-01T08:01:21;18.30;99.90
61412;DHT22;47278;49.732;7.690;2023-08-01T08:03:47;18.40;99.90
61412;DHT22;47278;49.732;7.690;2023-08-01T08:06:13;18.50;99.90
61412;DHT22;47278;49.732;7.690;2023-08-01T08:08:39;18.50;99.90
61412;DHT22;47278;49.732;7.690;2023-08-01T08:11:04;18.60;99.90
61412;DHT22;47278;49.732;7.690;2023-08-01T08:13:30;18.50;99.90
61412;DHT22;47278;49.732;7.690;2023-08-01T08:15:56;18.50;99.90
61412;DHT22;47278;49.732;7.690;2023-08-01T08:18:22;18.50;99.90
61412;DHT22;47278;49.732;7.690;2023-08-01T08:20:47;18.40;99.90
61412;DHT22;47278;49.732;7.690;2023-08-01T08:23:13;18.40;99.90
61412;DHT22;47278;49.732;7.690;2023-08-01T08:25:42;18.50;99.90
61412;DHT22;47278;49.732;7.690;2023-08-01T08:28:11;18.60;99.90
61412;DHT22;47278;49.732;7.690;2023-08-01T08:30:36;18.60;99.90
61412;DHT22;47278;49.732;7.690;2023-08-01T08:33:03;18.70;99.90
61412;DHT22;47278;49.732;7.690;2023-08-01T08:35:35;18.70;99.90
61412;DHT22;47278;49.732;7.690;2023-08-01T08:38:02;18.90;99.90
61412;DHT22;47278;49.732;7.690;2023-08-01T08:40:28;18.90;99.90
61412;DHT22;47278;49.732;7.690;2023-08-01T08:42:54;19.10;99.90
61412;DHT22;47278;49.732;7.690;2023-08-01T08:45:19;19.10;99.90
61412;DHT22;47278;49.732;7.690;2023-08-01T08:47:48;19.10;99.90
61412;DHT22;47278;49.732;7.690;2023-08-01T08:50:19;19.40;99.90
61412;DHT22;47278;49.732;7.690;2023-08-01T08:52:45;19.50;99.90
61412;DHT22;47278;49.732;7.690;2023-08-01T08:55:11;19.50;99.90
61412;DHT22;47278;49.732;7.690;2023-08-01T08:57:36;19.80;99.90
61412;DHT22;47278;49.732;7.690;2023-08-01T09:00:02;19.80;99.90
61412;DHT22;47278;49.732;7.690;2023-08-01T09:02:30;19.70;99.90
61412;DHT22;47278;49.732;7.690;2023-08-01T09:04:56;19.80;99.90
61412;DHT22;47278;49.732;7.690;2023-08-01T09:07:23;19.80;99.90
61412;DHT22;47278;49.732;7.690;2023-08-01T09:09:49;19.90;99.90
61412;DHT22;47278;49.732;7.690;2023-08-01T09:12:15;20.00;99.90
61412;DHT22;47278;49.732;7.690;2023-08-01T09:14:40;19.80;99.90
61412;DHT22;47278;49.732;7.690;2023-08-01T09:17:09;20.00;99.90
61412;DHT22;47278;49.732;7.690;2023-08-01T09:19:35;20.10;99.90
61412;DHT22;47278;49.732;7.690;2023-08-01T09:22:01;21.40;99.90
61412;DHT22;47278;49.732;7.690;2023-08-01T09:24:26;20.70;99.90
61412;DHT22;47278;49.732;7.690;2023-08-01T09:26:52;20.50;99.90
61412;DHT22;47278;49.732;7.690;2023-08-01T09:29:17;20.40;99.90
61412;DHT22;47278;49.732;7.690;2023-08-01T09:31:43;20.10;99.90
61412;DHT22;47278;49.732;7.690;2023-08-01T09:34:19;20.10;99.90
61412;DHT22;47278;49.732;7.690;2023-08-01T09:36:45;19.80;99.90
61412;DHT22;47278;49.732;7.690;2023-08-01T09:39:15;19.60;99.90
61412;DHT22;47278;49.732;7.690;2023-08-01T09:41:40;19.60;99.90
61412;DHT22;47278;49.732;7.690;2023-08-01T09:44:06;19.70;99.90
61412;DHT22;47278;49.732;7.690;2023-08-01T09:46:35;19.60;99.90
61412;DHT22;47278;49.732;7.690;2023-08-01T09:49:07;19.40;99.90
61412;DHT22;47278;49.732;7.690;2023-08-01T09:51:33;19.30;99.90
61412;DHT22;47278;49.732;7.690;2023-08-01T09:53:59;19.30;99.90
61412;DHT22;47278;49.732;7.690;2023-08-01T09:56:25;19.50;99.90
61412;DHT22;47278;49.732;7.690;2023-08-01T09:58:52;20.10;99.90
61412;DHT22;47278;49.732;7.690;2023-08-01T10:01:18;20.60;99.90
61412;DHT22;47278;49.732;7.690;2023-08-01T10:03:45;20.90;99.90
61412;DHT22;47278;49.732;7.690;2023-08-01T10:06:13;21.20;99.90
61412;DHT22;47278;49.732;7.690;2023-08-01T10:08:39;21.40;99.90
61412;DHT22;47278;49.732;7.690;2023-08-01T10:11:05;21.20;99.90
61412;DHT22;47278;49.732;7.690;2023-08-01T10:13:31;21.10;99.90
61412;DHT22;47278;49.732;7.690;2023-08-01T10:15:57;21.20;99.90
61412;DHT22;47278;49.732;7.690;2023-08-01T10:18:22;21.30;99.90
61412;DHT22;47278;49.732;7.690;2023-08-01T10:20:48;20.90;99.90
61412;DHT22;47278;49.732;7.690;2023-08-01T10:23:14;21.40;99.90
61412;DHT22;47278;49.732;7.690;2023-08-01T10:25:40;21.40;99.90
61412;DHT22;47278;49.732;7.690;2023-08-01T10:28:06;20.70;99.90
61412;DHT22;47278;49.732;7.690;2023-08-01T10:30:31;20.40;99.90
61412;DHT22;47278;49.732;7.690;2023-08-01T10:32:58;21.10;99.90
61412;DHT22;47278;49.732;7.690;2023-08-01T10:38:09;21.10;99.90
61412;DHT22;47278;49.732;7.690;2023-08-01T10:43:00;21.20;99.90
61412;DHT22;47278;49.732;7.690;2023-08-01T10:45:26;21.40;99.90
61412;DHT22;47278;49.732;7.690;2023-08-01T10:47:54;21.60;99.90
61412;DHT22;47278;49.732;7.690;2023-08-01T10:50:19;21.40;99.90
61412;DHT22;47278;49.732;7.690;2023-08-01T10:52:45;21.70;99.90
61412;DHT22;47278;49.732;7.690;2023-08-01T10:55:11;22.40;99.90
61412;DHT22;47278;49.732;7.690;2023-08-01T10:57:46;21.80;99.90
61412;DHT22;47278;49.732;7.690;2023-08-01T11:00:15;21.20;99.90
61412;DHT22;47278;49.732;7.690;2023-08-01T11:02:41;21.30;99.90
61412;DHT22;47278;49.732;7.690;2023-08-01T11:05:07;21.10;99.90
61412;DHT22;47278;49.732;7.690;2023-08-01T11:07:33;21.30;99.90
61412;DHT22;47278;49.732;7.690;2023-08-01T11:12:37;21.40;99.90
61412;DHT22;47278;49.732;7.690;2023-08-01T11:15:03;21.30;99.90
61412;DHT22;47278;49.732;7.690;2023-08-01T11:17:28;21.30;99.90
61412;DHT22;47278;49.732;7.690;2023-08-01T11:25:15;21.40;99.90
61412;DHT22;47278;49.732;7.690;2023-08-01T11:27:40;21.40;99.90
61412;DHT22;47278;49.732;7.690;2023-08-01T11:30:06;21.10;99.90
61412;DHT22;47278;49.732;7.690;2023-08-01T11:32:32;21.10;99.90
61412;DHT22;47278;49.732;7.690;2023-08-01T11:34:59;20.90;99.90
61412;DHT22;47278;49.732;7.690;2023-08-01T11:37:25;20.80;99.90
61412;DHT22;47278;49.732;7.690;2023-08-01T11:39:51;20.90;99.90
61412;DHT22;47278;49.732;7.690;2023-08-01T11:42:17;20.80;99.90
61412;DHT22;47278;49.732;7.690;2023-08-01T11:44:45;20.70;99.90
61412;DHT22;47278;49.732;7.690;2023-08-01T11:47:12;20.80;99.90
61412;DHT22;47278;49.732;7.690;2023-08-01T11:49:38;20.70;99.90
61412;DHT22;47278;49.732;7.690;2023-08-01T11:52:04;21.20;99.90
61412;DHT22;47278;49.732;7.690;2023-08-01T11:54:30;21.30;99.90
61412;DHT22;47278;49.732;7.690;2023-08-01T11:57:00;21.50;99.90
61412;DHT22;47278;49.732;7.690;2023-08-01T11:59:25;21.70;99.90
61412;DHT22;47278;49.732;7.690;2023-08-01T12:01:51;21.50;99.90
61412;DHT22;47278;49.732;7.690;2023-08-01T12:04:26;21.40;99.90
61412;DHT22;47278;49.732;7.690;2023-08-01T12:06:52;21.30;99.90
61412;DHT22;47278;49.732;7.690;2023-08-01T12:09:18;21.20;99.90
61412;DHT22;47278;49.732;7.690;2023-08-01T12:11:44;21.20;99.90
61412;DHT22;47278;49.732;7.690;2023-08-01T12:14:11;21.20;99.90
61412;DHT22;47278;49.732;7.690;2023-08-01T12:16:37;21.10;99.90
61412;DHT22;47278;49.732;7.690;2023-08-01T12:19:03;21.20;99.90
61412;DHT22;47278;49.732;7.690;2023-08-01T12:21:29;21.20;99.90
61412;DHT22;47278;49.732;7.690;2023-08-01T12:23:55;21.10;99.90
61412;DHT22;47278;49.732;7.690;2023-08-01T12:26:20;21.30;99.90
61412;DHT22;47278;49.732;7.690;2023-08-01T12:28:46;21.80;99.90
61412;DHT22;47278;49.732;7.690;2023-08-01T12:31:15;22.40;99.90
61412;DHT22;47278;49.732;7.690;2023-08-01T12:33:40;22.50;99.90
61412;DHT22;47278;49.732;7.690;2023-08-01T12:36:06;22.00;99.90
61412;DHT22;47278;49.732;7.690;2023-08-01T12:38:31;22.90;99.90
61412;DHT22;47278;49.732;7.690;2023-08-01T12:40:57;22.90;99.90
61412;DHT22;47278;49.732;7.690;2023-08-01T12:43:23;23.40;99.90
61412;DHT22;47278;49.732;7.690;2023-08-01T12:45:48;22.80;99.90
61412;DHT22;47278;49.732;7.690;2023-08-01T12:48:14;22.90;99.90
61412;DHT22;47278;49.732;7.690;2023-08-01T12:50:43;22.90;99.90
61412;DHT22;47278;49.732;7.690;2023-08-01T12:53:08;22.60;99.90
61412;DHT22;47278;49.732;7.690;2023-08-01T12:55:34;22.90;99.90
61412;DHT22;47278;49.732;7.690;2023-08-01T12:57:59;22.90;99.90
61412;DHT22;47278;49.732;7.690;2023-08-01T13:00:25;23.10;99.90
61412;DHT22;47278;49.732;7.690;2023-08-01T13:02:50;23.40;99.90
61412;DHT22;47278;49.732;7.690;2023-08-01T13:05:16;22.90;99.90
61412;DHT22;47278;49.732;7.690;2023-08-01T13:07:41;23.30;99.90
61412;DHT22;47278;49.732;7.690;2023-08-01T13:10:07;23.00;99.90
61412;DHT22;47278;49.732;7.690;2023-08-01T13:12:33;22.60;99.90
61412;DHT22;47278;49.732;7.690;2023-08-01T13:14:58;22.70;99.90
61412;DHT22;47278;49.732;7.690;2023-08-01T13:17:24;22.70;99.90
61412;DHT22;47278;49.732;7.690;2023-08-01T13:19:49;22.30;99.90
61412;DHT22;47278;49.732;7.690;2023-08-01T13:22:15;22.30;99.90
61412;DHT22;47278;49.732;7.690;2023-08-01T13:24:40;22.10;99.90
61412;DHT22;47278;49.732;7.690;2023-08-01T13:27:06;22.20;99.90
61412;DHT22;47278;49.732;7.690;2023-08-01T13:29:31;22.10;99.90
61412;DHT22;47278;49.732;7.690;2023-08-01T13:31:57;22.10;99.90
61412;DHT22;47278;49.732;7.690;2023-08-01T13:34:22;22.00;99.90
61412;DHT22;47278;49.732;7.690;2023-08-01T13:36:49;22.00;99.90
61412;DHT22;47278;49.732;7.690;2023-08-01T13:39:15;22.10;99.90
61412;DHT22;47278;49.732;7.690;2023-08-01T13:41:40;21.80;99.90
61412;DHT22;47278;49.732;7.690;2023-08-01T13:44:06;21.70;99.90
61412;DHT22;47278;49.732;7.690;2023-08-01T13:46:31;21.50;99.90
61412;DHT22;47278;49.732;7.690;2023-08-01T13:48:57;21.50;99.90
61412;DHT22;47278;49.732;7.690;2023-08-01T13:51:22;21.60;99.90
61412;DHT22;47278;49.732;7.690;2023-08-01T13:53:48;21.50;99.90
61412;DHT22;47278;49.732;7.690;2023-08-01T13:56:13;21.50;99.90
61412;DHT22;47278;49.732;7.690;2023-08-01T13:58:39;21.50;99.90
61412;DHT22;47278;49.732;7.690;2023-08-01T14:01:05;21.50;99.90
61412;DHT22;47278;49.732;7.690;2023-08-01T14:03:36;21.70;99.90
61412;DHT22;47278;49.732;7.690;2023-08-01T14:06:05;22.00;99.90
61412;DHT22;47278;49.732;7.690;2023-08-01T14:08:31;22.90;99.90
61412;DHT22;47278;49.732;7.690;2023-08-01T14:10:56;23.00;99.90
61412;DHT22;47278;49.732;7.690;2023-08-01T14:13:22;23.00;99.90
61412;DHT22;47278;49.732;7.690;2023-08-01T14:15:47;22.40;99.90
61412;DHT22;47278;49.732;7.690;2023-08-01T14:18:13;22.20;99.90
61412;DHT22;47278;49.732;7.690;2023-08-01T14:20:38;22.10;99.90
61412;DHT22;47278;49.732;7.690;2023-08-01T14:23:04;22.00;99.90
61412;DHT22;47278;49.732;7.690;2023-08-01T14:25:29;21.90;99.90
61412;DHT22;47278;49.732;7.690;2023-08-01T14:27:55;21.90;99.90
61412;DHT22;47278;49.732;7.690;2023-08-01T14:30:20;21.60;99.90
61412;DHT22;47278;49.732;7.690;2023-08-01T14:32:46;21.30;99.90
61412;DHT22;47278;49.732;7.690;2023-08-01T14:35:12;20.60;99.90
61412;DHT22;47278;49.732;7.690;2023-08-01T14:37:37;19.40;99.90
61412;DHT22;47278;49.732;7.690;2023-08-01T14:40:03;19.20;99.90
61412;DHT22;47278;49.732;7.690;2023-08-01T14:42:29;19.10;99.90
61412;DHT22;47278;49.732;7.690;2023-08-01T14:44:54;20.00;99.90
61412;DHT22;47278;49.732;7.690;2023-08-01T14:47:20;19.10;99.90
61412;DHT22;47278;49.732;7.690;2023-08-01T14:49:46;19.20;99.90
61412;DHT22;47278;49.732;7.690;2023-08-01T14:52:11;19.20;99.90
61412;DHT22;47278;49.732;7.690;2023-08-01T14:54:37;19.30;99.90
61412;DHT22;47278;49.732;7.690;2023-08-01T14:57:03;19.50;99.90
61412;DHT22;47278;49.732;7.690;2023-08-01T14:59:29;19.70;99.90
61412;DHT22;47278;49.732;7.690;2023-08-01T15:01:55;19.50;99.90
61412;DHT22;47278;49.732;7.690;2023-08-01T15:04:20;19.60;99.90
61412;DHT22;47278;49.732;7.690;2023-08-01T15:06:46;19.60;99.90
61412;DHT22;47278;49.732;7.690;2023-08-01T15:09:11;19.90;99.90
61412;DHT22;47278;49.732;7.690;2023-08-01T15:11:37;20.30;99.90
61412;DHT22;47278;49.732;7.690;2023-08-01T15:14:02;20.30;99.90
61412;DHT22;47278;49.732;7.690;2023-08-01T15:16:28;20.20;99.90
61412;DHT22;47278;49.732;7.690;2023-08-01T15:18:53;20.90;99.90
61412;DHT22;47278;49.732;7.690;2023-08-01T15:21:19;21.70;99.90
61412;DHT22;47278;49.732;7.690;2023-08-01T15:23:48;22.30;99.90
61412;DHT22;47278;49.732;7.690;2023-08-01T15:26:13;22.00;99.90
61412;DHT22;47278;49.732;7.690;2023-08-01T15:28:39;23.00;99.90
61412;DHT22;47278;49.732;7.690;2023-08-01T15:31:05;23.90;99.90
61412;DHT22;47278;49.732;7.690;2023-08-01T15:33:31;23.00;99.90
61412;DHT22;47278;49.732;7.690;2023-08-01T15:35:59;22.20;99.90